createdAt,value
2023-03-28T00:00:43.055Z,2.60
2023-03-28T00:03:35.528Z,2.37
2023-03-28T00:06:22.269Z,2.20
2023-03-28T00:09:09.215Z,2.27
2023-03-28T00:11:55.883Z,2.30
2023-03-28T00:14:43.461Z,2.33
2023-03-28T00:17:30.632Z,2.70
2023-03-28T00:20:17.656Z,2.50
2023-03-28T00:23:04.123Z,2.90
2023-03-28T00:25:50.342Z,2.90
2023-03-28T00:28:38.024Z,2.80
2023-03-28T00:31:26.385Z,2.63
2023-03-28T00:34:12.965Z,2.47
2023-03-28T00:37:02.636Z,2.80
2023-03-28T00:39:51.875Z,3.20
2023-03-28T00:42:42.340Z,2.50
2023-03-28T00:45:29.254Z,2.60
2023-03-28T00:48:15.825Z,2.77
2023-03-28T00:51:05.394Z,2.67
2023-03-28T00:53:57.815Z,2.90
2023-03-28T00:56:48.150Z,2.30
2023-03-28T00:59:37.276Z,3.10
2023-03-28T01:02:24.193Z,4.50
2023-03-28T01:05:12.585Z,2.70
2023-03-28T01:08:09.499Z,2.50
2023-03-28T01:10:56.282Z,2.60
2023-03-28T01:13:48.330Z,2.83
2023-03-28T01:16:41.227Z,2.80
2023-03-28T01:19:51.505Z,3.33
2023-03-28T01:22:56.129Z,3.03
2023-03-28T01:26:17.963Z,3.00
2023-03-28T01:29:32.405Z,3.03
2023-03-28T01:32:49.936Z,3.03
2023-03-28T01:36:11.484Z,3.27
2023-03-28T01:39:52.056Z,3.90
2023-03-28T01:42:51.379Z,2.93
2023-03-28T01:45:49.861Z,3.27
2023-03-28T01:48:36.479Z,3.03
2023-03-28T01:51:44.373Z,3.53
2023-03-28T01:54:36.047Z,3.50
2023-03-28T01:57:35.559Z,4.43
2023-03-28T02:00:37.574Z,4.07
2023-03-28T02:03:33.447Z,3.43
2023-03-28T02:06:28.042Z,3.43
2023-03-28T02:09:22.226Z,3.73
2023-03-28T02:12:46.044Z,3.27
2023-03-28T02:15:51.988Z,3.23
2023-03-28T02:18:58.562Z,3.70
2023-03-28T02:22:21.947Z,4.20
2023-03-28T02:25:09.223Z,4.77
2023-03-28T02:28:02.967Z,3.97
2023-03-28T02:30:56.071Z,3.77
2023-03-28T02:33:48.386Z,3.47
2023-03-28T02:37:00.243Z,3.43
2023-03-28T02:40:26.192Z,3.47
2023-03-28T02:43:21.644Z,3.43
2023-03-28T02:46:11.292Z,2.80
2023-03-28T02:49:03.636Z,3.53
2023-03-28T02:51:59.724Z,3.20
2023-03-28T02:54:58.181Z,3.20
2023-03-28T02:58:46.248Z,3.90
2023-03-28T03:01:33.894Z,3.70
2023-03-28T03:04:20.482Z,3.83
2023-03-28T03:07:08.961Z,3.77
2023-03-28T03:09:57.409Z,4.37
2023-03-28T03:12:43.965Z,3.87
2023-03-28T03:15:30.948Z,3.70
2023-03-28T03:18:18.151Z,3.30
2023-03-28T03:21:06.276Z,3.63
2023-03-28T03:23:52.693Z,4.23
2023-03-28T03:26:39.358Z,3.70
2023-03-28T03:29:25.972Z,4.30
2023-03-28T03:32:33.595Z,4.13
2023-03-28T03:35:23.780Z,4.57
2023-03-28T03:38:10.476Z,4.80
2023-03-28T03:40:57.106Z,5.10
2023-03-28T03:43:45.306Z,4.00
2023-03-28T03:46:33.736Z,4.03
2023-03-28T03:49:20.422Z,4.17
2023-03-28T03:52:06.973Z,4.37
2023-03-28T03:54:55.965Z,4.23
2023-03-28T03:57:42.667Z,4.37
2023-03-28T04:00:29.671Z,4.53
2023-03-28T04:03:24.165Z,4.50
2023-03-28T04:06:12.114Z,4.50
2023-03-28T04:08:58.648Z,4.00
2023-03-28T04:12:05.926Z,5.13
2023-03-28T04:15:03.281Z,5.50
2023-03-28T04:17:56.703Z,5.17
2023-03-28T04:20:49.582Z,4.27
2023-03-28T04:23:48.242Z,4.90
2023-03-28T04:27:00.806Z,5.53
2023-03-28T04:29:47.265Z,4.53
2023-03-28T04:33:05.641Z,4.47
2023-03-28T04:36:02.781Z,5.97
2023-03-28T04:38:49.593Z,5.70
2023-03-28T04:41:57.096Z,6.43
2023-03-28T04:44:47.631Z,6.13
2023-03-28T04:47:34.938Z,6.77
2023-03-28T04:50:21.348Z,5.07
2023-03-28T04:53:08.142Z,6.37
2023-03-28T04:55:57.479Z,6.60
2023-03-28T04:58:46.723Z,8.10
2023-03-28T05:01:34.858Z,6.40
2023-03-28T05:04:41.038Z,8.60
2023-03-28T05:07:28.376Z,7.40
2023-03-28T05:10:14.962Z,6.87
2023-03-28T05:13:01.983Z,6.03
2023-03-28T05:15:57.213Z,6.37
2023-03-28T05:19:01.664Z,6.10
2023-03-28T05:22:07.837Z,6.20
2023-03-28T05:24:57.079Z,6.73
2023-03-28T05:27:45.348Z,5.40
2023-03-28T05:30:32.022Z,6.27
2023-03-28T05:33:21.828Z,6.17
2023-03-28T05:36:09.250Z,6.10
2023-03-28T05:38:55.944Z,6.23
2023-03-28T05:41:42.618Z,7.23
2023-03-28T05:44:29.096Z,6.00
2023-03-28T05:47:34.721Z,6.30
2023-03-28T05:50:21.856Z,7.30
2023-03-28T05:53:08.615Z,6.53
2023-03-28T05:55:55.239Z,6.87
2023-03-28T05:58:41.638Z,6.70
2023-03-28T06:01:29.134Z,7.03
2023-03-28T06:04:21.770Z,7.27
2023-03-28T06:07:09.799Z,6.00
2023-03-28T06:09:57.817Z,6.77
2023-03-28T06:12:44.506Z,6.00
2023-03-28T06:15:31.088Z,6.30
2023-03-28T06:18:17.461Z,6.03
2023-03-28T06:21:06.622Z,6.83
2023-03-28T06:23:52.839Z,6.97
2023-03-28T06:26:44.903Z,5.57
2023-03-28T06:29:34.460Z,5.53
2023-03-28T06:32:23.300Z,5.43
2023-03-28T06:35:10.005Z,6.07
2023-03-28T06:37:57.071Z,4.70
2023-03-28T06:40:46.530Z,4.83
2023-03-28T06:43:32.810Z,4.90
2023-03-28T06:46:41.398Z,4.50
2023-03-28T06:49:29.201Z,4.90
2023-03-28T06:52:34.585Z,4.47
2023-03-28T06:55:23.900Z,4.27
2023-03-28T06:58:11.496Z,4.17
2023-03-28T07:01:06.815Z,4.13
2023-03-28T07:04:18.950Z,5.03
2023-03-28T07:07:07.753Z,5.63
2023-03-28T07:09:54.662Z,5.83
2023-03-28T07:12:41.492Z,5.73
2023-03-28T07:15:28.004Z,6.20
2023-03-28T07:18:14.398Z,5.40
2023-03-28T07:21:09.574Z,4.60
2023-03-28T07:23:56.153Z,4.30
2023-03-28T07:26:47.044Z,4.10
2023-03-28T07:29:33.813Z,4.00
2023-03-28T07:32:20.361Z,5.10
2023-03-28T07:35:08.421Z,4.20
2023-03-28T07:38:04.108Z,4.53
2023-03-28T07:40:54.198Z,3.57
2023-03-28T07:43:41.246Z,4.20
2023-03-28T07:46:28.218Z,3.20
2023-03-28T07:49:16.433Z,3.47
2023-03-28T07:52:04.383Z,3.40
2023-03-28T07:54:51.243Z,2.67
2023-03-28T07:57:37.886Z,2.93
2023-03-28T08:00:37.672Z,2.50
2023-03-28T08:04:03.447Z,2.70
2023-03-28T08:07:10.785Z,2.13
2023-03-28T08:09:59.045Z,1.93
2023-03-28T08:12:49.629Z,1.80
2023-03-28T08:15:36.653Z,2.00
2023-03-28T08:18:25.409Z,1.97
2023-03-28T08:21:11.819Z,2.00
2023-03-28T08:23:59.136Z,1.97
2023-03-28T08:26:52.188Z,2.90
2023-03-28T08:29:38.782Z,2.57
2023-03-28T08:32:26.847Z,2.23
2023-03-28T08:35:14.634Z,2.20
2023-03-28T08:38:02.001Z,1.93
2023-03-28T08:41:09.309Z,2.10
2023-03-28T08:44:19.600Z,2.83
2023-03-28T08:47:13.436Z,2.67
2023-03-28T08:50:01.851Z,2.23
2023-03-28T08:52:48.813Z,1.87
2023-03-28T08:55:42.881Z,1.80
2023-03-28T08:58:35.320Z,1.80
2023-03-28T09:01:23.530Z,2.00
2023-03-28T09:04:27.097Z,1.70
2023-03-28T09:07:44.621Z,1.73
2023-03-28T09:10:42.446Z,2.77
2023-03-28T09:13:57.538Z,1.70
2023-03-28T09:16:46.911Z,2.13
2023-03-28T09:19:48.215Z,1.70
2023-03-28T09:23:03.404Z,1.83
2023-03-28T09:26:29.840Z,1.97
2023-03-28T09:29:25.951Z,2.17
2023-03-28T09:32:21.081Z,2.70
2023-03-28T09:35:21.573Z,1.67
2023-03-28T09:38:38.230Z,1.70
2023-03-28T09:42:11.228Z,1.47
2023-03-28T09:45:49.109Z,1.70
2023-03-28T09:48:54.512Z,1.30
2023-03-28T09:51:45.586Z,1.17
2023-03-28T09:54:35.773Z,1.50
2023-03-28T09:57:23.522Z,2.03
2023-03-28T10:00:22.634Z,1.20
2023-03-28T10:03:32.439Z,1.60
2023-03-28T10:06:27.720Z,1.80
2023-03-28T10:09:20.188Z,1.60
2023-03-28T10:12:24.186Z,1.40
2023-03-28T10:15:45.266Z,1.17
2023-03-28T10:18:35.029Z,1.30
2023-03-28T10:21:41.738Z,1.30
2023-03-28T10:24:32.780Z,1.50
2023-03-28T10:27:33.213Z,1.40
2023-03-28T10:30:26.770Z,1.50
2023-03-28T10:33:17.390Z,1.40
2023-03-28T10:36:43.598Z,2.33
2023-03-28T10:39:33.593Z,1.23
2023-03-28T10:42:46.231Z,1.30
2023-03-28T10:46:02.373Z,1.10
2023-03-28T10:49:00.927Z,1.30
2023-03-28T10:51:47.652Z,1.60
2023-03-28T10:55:06.861Z,1.50
2023-03-28T10:58:36.090Z,1.03
2023-03-28T11:02:00.062Z,1.30
2023-03-28T11:05:12.317Z,1.40
2023-03-28T11:08:21.219Z,1.50
2023-03-28T11:11:44.866Z,1.67
2023-03-28T11:14:57.970Z,1.60
2023-03-28T11:18:03.157Z,1.20
2023-03-28T11:21:07.856Z,1.20
2023-03-28T11:24:06.712Z,1.40
2023-03-28T11:27:15.672Z,1.50
2023-03-28T11:30:23.916Z,1.40
2023-03-28T11:33:48.662Z,1.47
2023-03-28T11:36:48.792Z,1.17
2023-03-28T11:39:48.029Z,1.43
2023-03-28T11:42:48.766Z,1.13
2023-03-28T11:45:53.739Z,1.30
2023-03-28T11:49:16.918Z,1.20
2023-03-28T11:52:16.809Z,1.10
2023-03-28T11:55:18.837Z,1.57
2023-03-28T11:58:20.065Z,2.83
2023-03-28T12:01:12.166Z,1.33
2023-03-28T12:03:58.961Z,1.33
2023-03-28T12:07:03.740Z,1.40
2023-03-28T12:10:17.441Z,1.70
2023-03-28T12:13:18.864Z,1.20
2023-03-28T12:16:24.049Z,1.23
2023-03-28T12:19:17.319Z,1.23
2023-03-28T12:22:26.477Z,1.50
2023-03-28T12:25:21.963Z,1.30
2023-03-28T12:28:35.736Z,1.97
2023-03-28T12:31:42.425Z,2.10
2023-03-28T12:34:44.445Z,1.30
2023-03-28T12:38:14.297Z,1.53
2023-03-28T12:41:04.024Z,11.23
2023-03-28T12:43:53.949Z,4.60
2023-03-28T12:46:46.450Z,2.20
2023-03-28T12:49:44.959Z,1.43
2023-03-28T12:52:36.704Z,1.30
2023-03-28T12:55:25.640Z,1.20
2023-03-28T12:58:20.908Z,1.50
2023-03-28T13:01:25.334Z,1.23
2023-03-28T13:04:46.362Z,1.17
2023-03-28T13:08:04.729Z,1.40
2023-03-28T13:11:19.082Z,1.73
2023-03-28T13:14:11.239Z,1.60
2023-03-28T13:17:00.388Z,2.53
2023-03-28T13:19:51.746Z,1.80
2023-03-28T13:22:49.141Z,1.53
2023-03-28T13:25:36.681Z,1.40
2023-03-28T13:28:32.592Z,1.30
2023-03-28T13:31:24.729Z,1.33
2023-03-28T13:34:23.341Z,1.63
2023-03-28T13:37:24.824Z,1.20
2023-03-28T13:40:50.669Z,1.60
2023-03-28T13:43:37.701Z,1.77
2023-03-28T13:46:30.287Z,1.40
2023-03-28T13:49:32.074Z,1.50
2023-03-28T13:52:22.375Z,1.43
2023-03-28T13:55:23.082Z,1.40
2023-03-28T13:58:13.233Z,1.50
2023-03-28T14:01:16.502Z,1.60
2023-03-28T14:04:16.283Z,1.50
2023-03-28T14:07:02.652Z,1.47
2023-03-28T14:09:50.876Z,1.40
2023-03-28T14:12:38.146Z,1.43
2023-03-28T14:15:29.710Z,1.73
2023-03-28T14:18:22.745Z,1.70
2023-03-28T14:21:10.154Z,1.70
2023-03-28T14:24:07.783Z,1.37
2023-03-28T14:27:12.611Z,1.50
2023-03-28T14:30:00.407Z,1.13
2023-03-28T14:33:14.815Z,1.67
2023-03-28T14:36:04.225Z,1.37
2023-03-28T14:38:51.057Z,1.40
2023-03-28T14:41:38.245Z,1.40
2023-03-28T14:44:25.050Z,1.10
2023-03-28T14:47:17.545Z,1.10
2023-03-28T14:50:05.267Z,1.67
2023-03-28T14:52:52.165Z,2.70
2023-03-28T14:55:39.248Z,1.53
2023-03-28T14:58:26.720Z,1.57
2023-03-28T15:01:24.745Z,1.40
2023-03-28T15:04:13.465Z,1.13
2023-03-28T15:07:00.050Z,1.30
2023-03-28T15:10:01.378Z,1.43
2023-03-28T15:13:08.863Z,1.30
2023-03-28T15:15:57.678Z,1.33
2023-03-28T15:18:49.164Z,1.50
2023-03-28T15:21:38.757Z,1.50
2023-03-28T15:24:27.787Z,1.63
2023-03-28T15:27:33.250Z,1.60
2023-03-28T15:30:20.790Z,1.60
2023-03-28T15:33:07.350Z,1.60
2023-03-28T15:36:12.093Z,1.60
2023-03-28T15:39:11.097Z,1.50
2023-03-28T15:42:16.575Z,2.23
2023-03-28T15:45:22.325Z,1.60
2023-03-28T15:48:19.735Z,1.40
2023-03-28T15:51:12.996Z,1.60
2023-03-28T15:54:00.374Z,1.80
2023-03-28T15:56:48.672Z,1.70
2023-03-28T16:00:01.424Z,1.70
2023-03-28T16:02:48.571Z,1.87
2023-03-28T16:05:37.556Z,1.50
2023-03-28T16:08:32.619Z,1.33
2023-03-28T16:11:26.700Z,2.27
2023-03-28T16:14:35.222Z,1.80
2023-03-28T16:17:48.857Z,1.87
2023-03-28T16:20:43.928Z,1.50
2023-03-28T16:23:30.321Z,1.93
2023-03-28T16:26:17.077Z,1.50
2023-03-28T16:29:05.134Z,1.67
2023-03-28T16:31:51.527Z,1.70
2023-03-28T16:34:38.738Z,1.43
2023-03-28T16:37:24.912Z,2.77
2023-03-28T16:40:12.074Z,1.70
2023-03-28T16:42:58.843Z,1.87
2023-03-28T16:45:47.082Z,1.73
2023-03-28T16:48:36.544Z,1.70
2023-03-28T16:51:23.118Z,2.27
2023-03-28T16:54:10.166Z,1.80
2023-03-28T16:56:57.113Z,1.70
2023-03-28T16:59:43.705Z,1.80
2023-03-28T17:02:30.843Z,1.60
2023-03-28T17:05:17.795Z,1.70
2023-03-28T17:08:04.590Z,1.40
2023-03-28T17:10:52.128Z,2.07
2023-03-28T17:13:40.288Z,1.63
2023-03-28T17:16:27.343Z,1.40
2023-03-28T17:19:14.102Z,1.43
2023-03-28T17:22:01.263Z,1.97
2023-03-28T17:24:47.549Z,1.40
2023-03-28T17:27:33.784Z,1.60
2023-03-28T17:30:20.580Z,2.17
2023-03-28T17:33:07.614Z,1.80
2023-03-28T17:35:54.227Z,1.87
2023-03-28T17:38:41.023Z,1.53
2023-03-28T17:41:28.069Z,2.20
2023-03-28T17:44:14.661Z,1.70
2023-03-28T17:47:01.367Z,1.60
2023-03-28T17:49:47.973Z,1.43
2023-03-28T17:52:34.939Z,2.27
2023-03-28T17:55:21.578Z,2.20
2023-03-28T17:58:08.223Z,2.90
2023-03-28T18:00:54.766Z,3.40
2023-03-28T18:03:41.593Z,4.67
2023-03-28T18:06:41.090Z,4.23
2023-03-28T18:09:27.656Z,3.33
2023-03-28T18:12:14.436Z,2.30
2023-03-28T18:15:01.480Z,2.57
2023-03-28T18:17:48.091Z,2.67
2023-03-28T18:20:35.389Z,3.00
2023-03-28T18:23:22.094Z,3.30
2023-03-28T18:26:09.081Z,2.90
2023-03-28T18:28:55.830Z,3.07
2023-03-28T18:31:42.628Z,2.63
2023-03-28T18:34:29.079Z,2.13
2023-03-28T18:37:16.602Z,2.27
2023-03-28T18:40:07.141Z,2.20
2023-03-28T18:42:53.797Z,1.90
2023-03-28T18:45:40.288Z,2.10
2023-03-28T18:48:28.390Z,2.30
2023-03-28T18:51:14.544Z,2.10
2023-03-28T18:54:01.538Z,1.90
2023-03-28T18:56:48.402Z,2.10
2023-03-28T18:59:34.745Z,2.00
2023-03-28T19:02:22.273Z,2.10
2023-03-28T19:05:09.430Z,2.33
2023-03-28T19:07:56.927Z,2.40
2023-03-28T19:10:46.536Z,2.60
2023-03-28T19:13:33.355Z,2.60
2023-03-28T19:16:20.287Z,2.10
2023-03-28T19:19:06.728Z,2.47
2023-03-28T19:21:53.405Z,2.37
2023-03-28T19:24:39.914Z,2.30
2023-03-28T19:27:26.087Z,2.90
2023-03-28T19:30:12.755Z,2.40
2023-03-28T19:32:59.112Z,2.33
2023-03-28T19:35:45.632Z,2.70
2023-03-28T19:38:34.883Z,2.13
2023-03-28T19:41:23.147Z,3.27
2023-03-28T19:44:09.860Z,2.47
2023-03-28T19:46:56.054Z,2.60
2023-03-28T19:49:42.869Z,2.30
2023-03-28T19:52:29.368Z,2.73
2023-03-28T19:55:15.554Z,2.43
2023-03-28T19:58:04.973Z,2.47
2023-03-28T20:00:51.398Z,2.33
2023-03-28T20:03:37.721Z,2.50
2023-03-28T20:06:24.996Z,2.50
2023-03-28T20:09:11.505Z,2.80
2023-03-28T20:11:58.121Z,3.07
2023-03-28T20:14:45.730Z,3.30
2023-03-28T20:17:32.722Z,3.13
2023-03-28T20:20:19.455Z,4.07
2023-03-28T20:23:06.786Z,3.07
2023-03-28T20:25:53.818Z,3.47
2023-03-28T20:28:41.577Z,3.27
2023-03-28T20:31:29.070Z,3.03
2023-03-28T20:34:15.552Z,3.87
2023-03-28T20:37:02.066Z,3.00
2023-03-28T20:39:50.535Z,3.13
2023-03-28T20:42:40.674Z,3.10
2023-03-28T20:45:28.430Z,2.70
2023-03-28T20:48:16.641Z,2.50
2023-03-28T20:51:14.371Z,2.30
2023-03-28T20:54:01.592Z,2.73
2023-03-28T20:56:49.342Z,2.00
2023-03-28T20:59:35.392Z,3.00
2023-03-28T21:02:23.139Z,2.73
2023-03-28T21:05:09.929Z,2.17
2023-03-28T21:07:58.184Z,2.20
2023-03-28T21:10:51.929Z,2.60
2023-03-28T21:13:38.237Z,2.50
2023-03-28T21:16:25.559Z,2.57
2023-03-28T21:19:12.018Z,2.47
2023-03-28T21:21:58.236Z,2.30
2023-03-28T21:24:44.520Z,2.43
2023-03-28T21:27:32.050Z,2.63
2023-03-28T21:30:19.428Z,2.60
2023-03-28T21:33:06.917Z,3.33
2023-03-28T21:35:54.375Z,2.90
2023-03-28T21:38:40.889Z,3.07
2023-03-28T21:41:27.404Z,2.30
2023-03-28T21:44:13.797Z,2.80
2023-03-28T21:47:00.702Z,3.70
2023-03-28T21:49:49.326Z,2.77
2023-03-28T21:52:36.308Z,3.13
2023-03-28T21:55:22.862Z,2.50
2023-03-28T21:58:09.090Z,2.47
2023-03-28T22:00:55.963Z,3.50
2023-03-28T22:03:42.829Z,2.67
2023-03-28T22:06:29.327Z,4.00
2023-03-28T22:09:15.575Z,3.13
2023-03-28T22:12:05.536Z,3.00
2023-03-28T22:14:52.153Z,3.13
2023-03-28T22:17:40.633Z,2.67
2023-03-28T22:20:28.405Z,3.17
2023-03-28T22:23:15.146Z,3.17
2023-03-28T22:26:03.445Z,3.30
2023-03-28T22:28:49.760Z,3.03
2023-03-28T22:31:36.099Z,2.67
2023-03-28T22:34:22.585Z,3.43
2023-03-28T22:37:09.112Z,3.63
2023-03-28T22:39:55.958Z,2.80
2023-03-28T22:42:42.322Z,2.90
2023-03-28T22:45:28.945Z,1.83
2023-03-28T22:48:15.573Z,2.47
2023-03-28T22:51:02.523Z,1.60
2023-03-28T22:53:49.357Z,1.50
2023-03-28T22:56:35.645Z,1.13
2023-03-28T22:59:22.392Z,1.20
2023-03-28T23:02:08.789Z,1.30
2023-03-28T23:04:55.953Z,1.70
2023-03-28T23:07:42.939Z,1.27
2023-03-28T23:10:32.877Z,1.43
2023-03-28T23:13:19.496Z,1.00
2023-03-28T23:16:07.212Z,1.10
2023-03-28T23:18:53.651Z,1.30
2023-03-28T23:21:41.513Z,1.27
2023-03-28T23:24:28.216Z,1.20
2023-03-28T23:27:14.615Z,1.33
2023-03-28T23:30:00.908Z,1.10
2023-03-28T23:32:47.340Z,1.20
2023-03-28T23:35:33.664Z,1.27
2023-03-28T23:38:19.942Z,1.60
2023-03-28T23:41:07.682Z,1.50
2023-03-28T23:43:54.053Z,1.40
2023-03-28T23:46:40.635Z,1.40
2023-03-28T23:49:26.952Z,1.50
2023-03-28T23:52:13.293Z,1.43
2023-03-28T23:54:59.696Z,1.50
2023-03-28T23:57:46.680Z,1.40
